sensor_id;sensor_type;location;lat;lon;timestamp;P1;durP1;ratioP1;P2;durP2;ratioP2
25391;SDS011;13329;48.402;11.718;2022-09-03T00:02:19;1.90;;;1.30;;
25391;SDS011;13329;48.402;11.718;2022-09-03T00:04:48;2.63;;;1.33;;
25391;SDS011;13329;48.402;11.718;2022-09-03T00:08:01;2.30;;;1.20;;
25391;SDS011;13329;48.402;11.718;2022-09-03T00:10:03;1.95;;;1.20;;
25391;SDS011;13329;48.402;11.718;2022-09-03T00:12:31;1.45;;;1.13;;
25391;SDS011;13329;48.402;11.718;2022-09-03T00:15:00;1.20;;;1.10;;
25391;SDS011;13329;48.402;11.718;2022-09-03T00:17:28;2.15;;;1.23;;
25391;SDS011;13329;48.402;11.718;2022-09-03T00:20:29;2.30;;;1.20;;
25391;SDS011;13329;48.402;11.718;2022-09-03T00:22:49;1.98;;;1.40;;
25391;SDS011;13329;48.402;11.718;2022-09-03T00:25:20;1.48;;;1.20;;
25391;SDS011;13329;48.402;11.718;2022-09-03T00:27:47;2.58;;;1.20;;
25391;SDS011;13329;48.402;11.718;2022-09-03T00:30:15;1.50;;;1.15;;
25391;SDS011;13329;48.402;11.718;2022-09-03T00:32:48;1.90;;;1.20;;
25391;SDS011;13329;48.402;11.718;2022-09-03T00:35:16;2.42;;;1.20;;
25391;SDS011;13329;48.402;11.718;2022-09-03T00:37:44;1.85;;;1.40;;
25391;SDS011;13329;48.402;11.718;2022-09-03T00:40:14;3.80;;;1.05;;
25391;SDS011;13329;48.402;11.718;2022-09-03T00:42:51;1.20;;;1.10;;
25391;SDS011;13329;48.402;11.718;2022-09-03T00:45:23;1.15;;;1.00;;
25391;SDS011;13329;48.402;11.718;2022-09-03T00:48:07;1.60;;;1.02;;
25391;SDS011;13329;48.402;11.718;2022-09-03T00:50:58;1.13;;;0.90;;
25391;SDS011;13329;48.402;11.718;2022-09-03T00:53:27;2.45;;;1.42;;
25391;SDS011;13329;48.402;11.718;2022-09-03T00:58:28;3.72;;;1.15;;
25391;SDS011;13329;48.402;11.718;2022-09-03T01:00:56;4.50;;;1.30;;
25391;SDS011;13329;48.402;11.718;2022-09-03T01:03:32;1.37;;;1.10;;
25391;SDS011;13329;48.402;11.718;2022-09-03T01:06:07;1.55;;;1.20;;
25391;SDS011;13329;48.402;11.718;2022-09-03T01:16:03;2.20;;;1.30;;
25391;SDS011;13329;48.402;11.718;2022-09-03T01:27:16;2.50;;;1.23;;
25391;SDS011;13329;48.402;11.718;2022-09-03T01:29:22;3.55;;;1.30;;
25391;SDS011;13329;48.402;11.718;2022-09-03T01:31:56;1.38;;;1.08;;
25391;SDS011;13329;48.402;11.718;2022-09-03T01:34:30;1.30;;;1.20;;
25391;SDS011;13329;48.402;11.718;2022-09-03T01:39:42;4.00;;;1.20;;
25391;SDS011;13329;48.402;11.718;2022-09-03T01:47:37;1.95;;;1.00;;
25391;SDS011;13329;48.402;11.718;2022-09-03T01:50:06;1.73;;;1.38;;
25391;SDS011;13329;48.402;11.718;2022-09-03T01:55:09;1.63;;;1.20;;
25391;SDS011;13329;48.402;11.718;2022-09-03T02:00:30;2.00;;;1.15;;
25391;SDS011;13329;48.402;11.718;2022-09-03T02:02:59;1.92;;;1.10;;
25391;SDS011;13329;48.402;11.718;2022-09-03T02:05:25;3.20;;;1.40;;
25391;SDS011;13329;48.402;11.718;2022-09-03T02:08:02;1.73;;;1.15;;
25391;SDS011;13329;48.402;11.718;2022-09-03T02:10:49;3.92;;;1.55;;
25391;SDS011;13329;48.402;11.718;2022-09-03T02:13:15;1.70;;;1.48;;
25391;SDS011;13329;48.402;11.718;2022-09-03T02:15:43;2.22;;;1.45;;
25391;SDS011;13329;48.402;11.718;2022-09-03T02:18:14;1.60;;;1.10;;
25391;SDS011;13329;48.402;11.718;2022-09-03T02:20:40;2.30;;;1.30;;
25391;SDS011;13329;48.402;11.718;2022-09-03T02:23:06;1.42;;;1.00;;
25391;SDS011;13329;48.402;11.718;2022-09-03T02:25:33;1.80;;;1.15;;
25391;SDS011;13329;48.402;11.718;2022-09-03T02:27:59;2.67;;;1.40;;
25391;SDS011;13329;48.402;11.718;2022-09-03T02:30:25;1.98;;;1.60;;
25391;SDS011;13329;48.402;11.718;2022-09-03T02:32:50;2.93;;;1.43;;
25391;SDS011;13329;48.402;11.718;2022-09-03T02:35:16;2.07;;;1.50;;
25391;SDS011;13329;48.402;11.718;2022-09-03T02:37:41;1.87;;;1.30;;
25391;SDS011;13329;48.402;11.718;2022-09-03T02:40:06;1.70;;;1.13;;
25391;SDS011;13329;48.402;11.718;2022-09-03T02:42:34;2.17;;;1.40;;
25391;SDS011;13329;48.402;11.718;2022-09-03T02:45:00;1.63;;;1.30;;
25391;SDS011;13329;48.402;11.718;2022-09-03T02:47:28;2.60;;;1.15;;
25391;SDS011;13329;48.402;11.718;2022-09-03T02:49:54;2.75;;;1.60;;
25391;SDS011;13329;48.402;11.718;2022-09-03T02:52:20;3.15;;;1.88;;
25391;SDS011;13329;48.402;11.718;2022-09-03T02:54:45;3.80;;;1.20;;
25391;SDS011;13329;48.402;11.718;2022-09-03T02:57:11;1.83;;;1.40;;
25391;SDS011;13329;48.402;11.718;2022-09-03T02:59:37;2.85;;;1.35;;
25391;SDS011;13329;48.402;11.718;2022-09-03T03:02:03;3.05;;;1.20;;
25391;SDS011;13329;48.402;11.718;2022-09-03T03:04:29;3.60;;;1.50;;
25391;SDS011;13329;48.402;11.718;2022-09-03T03:06:54;3.72;;;1.40;;
25391;SDS011;13329;48.402;11.718;2022-09-03T03:09:19;2.13;;;1.30;;
25391;SDS011;13329;48.402;11.718;2022-09-03T03:11:45;1.83;;;1.40;;
25391;SDS011;13329;48.402;11.718;2022-09-03T03:14:10;3.15;;;1.50;;
25391;SDS011;13329;48.402;11.718;2022-09-03T03:16:35;2.03;;;1.43;;
25391;SDS011;13329;48.402;11.718;2022-09-03T03:19:01;1.87;;;1.40;;
25391;SDS011;13329;48.402;11.718;2022-09-03T03:21:26;4.30;;;1.53;;
25391;SDS011;13329;48.402;11.718;2022-09-03T03:23:51;3.78;;;1.40;;
25391;SDS011;13329;48.402;11.718;2022-09-03T03:26:17;3.07;;;1.40;;
25391;SDS011;13329;48.402;11.718;2022-09-03T03:28:43;2.78;;;1.30;;
25391;SDS011;13329;48.402;11.718;2022-09-03T03:31:12;2.15;;;1.42;;
25391;SDS011;13329;48.402;11.718;2022-09-03T03:33:38;4.53;;;1.58;;
25391;SDS011;13329;48.402;11.718;2022-09-03T03:36:08;3.28;;;1.75;;
25391;SDS011;13329;48.402;11.718;2022-09-03T03:38:34;2.95;;;1.65;;
25391;SDS011;13329;48.402;11.718;2022-09-03T03:41:05;2.53;;;1.60;;
25391;SDS011;13329;48.402;11.718;2022-09-03T03:43:30;2.65;;;1.70;;
25391;SDS011;13329;48.402;11.718;2022-09-03T03:45:56;2.70;;;1.60;;
25391;SDS011;13329;48.402;11.718;2022-09-03T03:48:21;3.25;;;1.60;;
25391;SDS011;13329;48.402;11.718;2022-09-03T03:50:47;2.40;;;1.73;;
25391;SDS011;13329;48.402;11.718;2022-09-03T03:53:12;2.97;;;1.50;;
25391;SDS011;13329;48.402;11.718;2022-09-03T03:55:37;3.50;;;1.40;;
25391;SDS011;13329;48.402;11.718;2022-09-03T03:58:03;3.67;;;1.77;;
25391;SDS011;13329;48.402;11.718;2022-09-03T04:00:28;3.57;;;1.30;;
25391;SDS011;13329;48.402;11.718;2022-09-03T04:02:53;4.75;;;1.70;;
25391;SDS011;13329;48.402;11.718;2022-09-03T04:05:18;2.90;;;1.50;;
25391;SDS011;13329;48.402;11.718;2022-09-03T04:07:43;2.63;;;1.90;;
25391;SDS011;13329;48.402;11.718;2022-09-03T04:10:09;1.60;;;1.40;;
25391;SDS011;13329;48.402;11.718;2022-09-03T04:12:34;2.83;;;1.58;;
25391;SDS011;13329;48.402;11.718;2022-09-03T04:14:59;2.47;;;1.40;;
25391;SDS011;13329;48.402;11.718;2022-09-03T04:17:24;2.33;;;1.40;;
25391;SDS011;13329;48.402;11.718;2022-09-03T04:19:50;1.70;;;1.50;;
25391;SDS011;13329;48.402;11.718;2022-09-03T04:22:15;4.87;;;1.60;;
25391;SDS011;13329;48.402;11.718;2022-09-03T04:24:40;2.53;;;1.80;;
25391;SDS011;13329;48.402;11.718;2022-09-03T04:27:05;3.00;;;1.50;;
25391;SDS011;13329;48.402;11.718;2022-09-03T04:29:30;2.00;;;1.57;;
25391;SDS011;13329;48.402;11.718;2022-09-03T04:31:56;2.17;;;1.70;;
25391;SDS011;13329;48.402;11.718;2022-09-03T04:34:39;1.92;;;1.50;;
25391;SDS011;13329;48.402;11.718;2022-09-03T04:37:05;6.20;;;1.90;;
25391;SDS011;13329;48.402;11.718;2022-09-03T04:39:30;2.13;;;1.50;;
25391;SDS011;13329;48.402;11.718;2022-09-03T04:41:55;2.78;;;1.50;;
25391;SDS011;13329;48.402;11.718;2022-09-03T04:44:20;2.25;;;1.70;;
25391;SDS011;13329;48.402;11.718;2022-09-03T04:46:45;3.27;;;2.00;;
25391;SDS011;13329;48.402;11.718;2022-09-03T04:49:12;2.65;;;1.55;;
25391;SDS011;13329;48.402;11.718;2022-09-03T04:51:37;1.70;;;1.60;;
25391;SDS011;13329;48.402;11.718;2022-09-03T04:54:03;3.03;;;1.58;;
25391;SDS011;13329;48.402;11.718;2022-09-03T04:56:32;2.60;;;1.70;;
25391;SDS011;13329;48.402;11.718;2022-09-03T04:58:58;3.28;;;1.80;;
25391;SDS011;13329;48.402;11.718;2022-09-03T05:01:25;3.65;;;1.63;;
25391;SDS011;13329;48.402;11.718;2022-09-03T05:03:50;2.03;;;1.30;;
25391;SDS011;13329;48.402;11.718;2022-09-03T05:06:16;3.55;;;1.67;;
25391;SDS011;13329;48.402;11.718;2022-09-03T05:08:41;2.42;;;1.45;;
25391;SDS011;13329;48.402;11.718;2022-09-03T05:11:08;2.83;;;1.73;;
25391;SDS011;13329;48.402;11.718;2022-09-03T05:13:34;2.97;;;1.50;;
25391;SDS011;13329;48.402;11.718;2022-09-03T05:16:03;3.72;;;1.42;;
25391;SDS011;13329;48.402;11.718;2022-09-03T05:18:29;1.92;;;1.60;;
25391;SDS011;13329;48.402;11.718;2022-09-03T05:20:58;2.08;;;1.42;;
25391;SDS011;13329;48.402;11.718;2022-09-03T05:23:24;2.70;;;1.67;;
25391;SDS011;13329;48.402;11.718;2022-09-03T05:25:56;3.35;;;1.33;;
25391;SDS011;13329;48.402;11.718;2022-09-03T05:28:22;2.05;;;1.50;;
25391;SDS011;13329;48.402;11.718;2022-09-03T05:30:56;2.13;;;1.37;;
25391;SDS011;13329;48.402;11.718;2022-09-03T05:33:21;3.25;;;1.70;;
25391;SDS011;13329;48.402;11.718;2022-09-03T05:35:47;2.25;;;1.60;;
25391;SDS011;13329;48.402;11.718;2022-09-03T05:38:12;3.03;;;1.50;;
25391;SDS011;13329;48.402;11.718;2022-09-03T05:40:39;2.72;;;1.70;;
25391;SDS011;13329;48.402;11.718;2022-09-03T05:43:05;5.35;;;1.48;;
25391;SDS011;13329;48.402;11.718;2022-09-03T05:45:30;3.67;;;1.70;;
25391;SDS011;13329;48.402;11.718;2022-09-03T05:47:58;2.78;;;1.75;;
25391;SDS011;13329;48.402;11.718;2022-09-03T05:50:23;4.40;;;1.50;;
25391;SDS011;13329;48.402;11.718;2022-09-03T05:52:48;3.35;;;1.30;;
25391;SDS011;13329;48.402;11.718;2022-09-03T05:55:13;5.78;;;1.70;;
25391;SDS011;13329;48.402;11.718;2022-09-03T05:57:39;2.57;;;1.20;;
25391;SDS011;13329;48.402;11.718;2022-09-03T06:00:05;2.00;;;1.40;;
25391;SDS011;13329;48.402;11.718;2022-09-03T06:02:30;2.53;;;1.38;;
25391;SDS011;13329;48.402;11.718;2022-09-03T06:04:56;3.70;;;1.50;;
25391;SDS011;13329;48.402;11.718;2022-09-03T06:07:21;3.25;;;1.30;;
25391;SDS011;13329;48.402;11.718;2022-09-03T06:09:46;1.63;;;1.33;;
25391;SDS011;13329;48.402;11.718;2022-09-03T06:12:12;2.40;;;1.40;;
25391;SDS011;13329;48.402;11.718;2022-09-03T06:14:37;2.17;;;1.50;;
25391;SDS011;13329;48.402;11.718;2022-09-03T06:17:02;2.23;;;1.47;;
25391;SDS011;13329;48.402;11.718;2022-09-03T06:19:27;4.57;;;1.80;;
25391;SDS011;13329;48.402;11.718;2022-09-03T06:21:52;3.40;;;2.10;;
25391;SDS011;13329;48.402;11.718;2022-09-03T06:24:18;2.03;;;1.70;;
25391;SDS011;13329;48.402;11.718;2022-09-03T06:26:44;2.03;;;1.60;;
25391;SDS011;13329;48.402;11.718;2022-09-03T06:29:10;4.70;;;1.80;;
25391;SDS011;13329;48.402;11.718;2022-09-03T06:31:35;2.35;;;1.70;;
25391;SDS011;13329;48.402;11.718;2022-09-03T06:34:01;6.23;;;1.90;;
25391;SDS011;13329;48.402;11.718;2022-09-03T06:36:27;4.07;;;1.52;;
25391;SDS011;13329;48.402;11.718;2022-09-03T06:38:53;2.42;;;1.83;;
25391;SDS011;13329;48.402;11.718;2022-09-03T06:41:19;2.00;;;1.48;;
25391;SDS011;13329;48.402;11.718;2022-09-03T06:43:45;2.47;;;1.52;;
25391;SDS011;13329;48.402;11.718;2022-09-03T06:46:11;3.13;;;2.10;;
25391;SDS011;13329;48.402;11.718;2022-09-03T06:48:37;2.08;;;1.52;;
25391;SDS011;13329;48.402;11.718;2022-09-03T06:51:07;2.35;;;1.80;;
25391;SDS011;13329;48.402;11.718;2022-09-03T06:53:34;2.78;;;1.40;;
25391;SDS011;13329;48.402;11.718;2022-09-03T06:56:00;4.32;;;2.00;;
25391;SDS011;13329;48.402;11.718;2022-09-03T06:58:29;4.53;;;1.80;;
25391;SDS011;13329;48.402;11.718;2022-09-03T07:01:05;2.30;;;1.73;;
25391;SDS011;13329;48.402;11.718;2022-09-03T07:03:30;1.80;;;1.58;;
25391;SDS011;13329;48.402;11.718;2022-09-03T07:05:59;2.95;;;1.67;;
25391;SDS011;13329;48.402;11.718;2022-09-03T07:08:24;2.50;;;2.00;;
25391;SDS011;13329;48.402;11.718;2022-09-03T07:10:50;3.78;;;1.92;;
25391;SDS011;13329;48.402;11.718;2022-09-03T07:13:15;3.37;;;1.70;;
25391;SDS011;13329;48.402;11.718;2022-09-03T07:15:41;2.42;;;1.85;;
25391;SDS011;13329;48.402;11.718;2022-09-03T07:18:06;2.83;;;1.83;;
25391;SDS011;13329;48.402;11.718;2022-09-03T07:20:31;3.70;;;2.03;;
25391;SDS011;13329;48.402;11.718;2022-09-03T07:22:57;3.65;;;2.10;;
25391;SDS011;13329;48.402;11.718;2022-09-03T07:25:23;2.27;;;1.90;;
25391;SDS011;13329;48.402;11.718;2022-09-03T07:27:48;4.28;;;1.88;;
25391;SDS011;13329;48.402;11.718;2022-09-03T07:30:15;3.08;;;1.98;;
25391;SDS011;13329;48.402;11.718;2022-09-03T07:32:40;2.97;;;2.03;;
25391;SDS011;13329;48.402;11.718;2022-09-03T07:35:05;2.83;;;1.60;;
25391;SDS011;13329;48.402;11.718;2022-09-03T07:37:31;2.92;;;2.13;;
25391;SDS011;13329;48.402;11.718;2022-09-03T07:39:56;3.17;;;2.17;;
25391;SDS011;13329;48.402;11.718;2022-09-03T07:42:21;2.25;;;1.77;;
25391;SDS011;13329;48.402;11.718;2022-09-03T07:44:47;2.70;;;1.90;;
25391;SDS011;13329;48.402;11.718;2022-09-03T07:47:12;4.10;;;2.40;;
25391;SDS011;13329;48.402;11.718;2022-09-03T07:49:38;5.70;;;2.33;;
25391;SDS011;13329;48.402;11.718;2022-09-03T07:52:04;4.10;;;2.03;;
25391;SDS011;13329;48.402;11.718;2022-09-03T07:54:29;4.10;;;2.33;;
25391;SDS011;13329;48.402;11.718;2022-09-03T07:56:55;3.70;;;2.72;;
25391;SDS011;13329;48.402;11.718;2022-09-03T07:59:20;4.32;;;2.20;;
25391;SDS011;13329;48.402;11.718;2022-09-03T08:01:46;5.63;;;2.28;;
25391;SDS011;13329;48.402;11.718;2022-09-03T08:04:12;2.65;;;2.13;;
25391;SDS011;13329;48.402;11.718;2022-09-03T08:06:37;3.13;;;2.30;;
25391;SDS011;13329;48.402;11.718;2022-09-03T08:09:04;5.78;;;2.45;;
25391;SDS011;13329;48.402;11.718;2022-09-03T08:11:30;4.55;;;2.53;;
25391;SDS011;13329;48.402;11.718;2022-09-03T08:14:00;6.68;;;2.60;;
25391;SDS011;13329;48.402;11.718;2022-09-03T08:16:30;4.90;;;2.80;;
25391;SDS011;13329;48.402;11.718;2022-09-03T08:18:56;3.50;;;2.67;;
25391;SDS011;13329;48.402;11.718;2022-09-03T08:21:21;4.78;;;2.80;;
25391;SDS011;13329;48.402;11.718;2022-09-03T08:23:47;3.50;;;2.40;;
25391;SDS011;13329;48.402;11.718;2022-09-03T08:26:14;4.68;;;2.80;;
25391;SDS011;13329;48.402;11.718;2022-09-03T08:28:39;3.03;;;2.33;;
25391;SDS011;13329;48.402;11.718;2022-09-03T08:33:31;3.53;;;2.60;;
25391;SDS011;13329;48.402;11.718;2022-09-03T08:36:06;4.03;;;2.33;;
25391;SDS011;13329;48.402;11.718;2022-09-03T08:38:32;3.33;;;2.33;;
25391;SDS011;13329;48.402;11.718;2022-09-03T08:43:32;4.43;;;2.95;;
25391;SDS011;13329;48.402;11.718;2022-09-03T08:46:03;4.85;;;2.85;;
25391;SDS011;13329;48.402;11.718;2022-09-03T08:48:29;5.80;;;2.83;;
25391;SDS011;13329;48.402;11.718;2022-09-03T08:50:55;4.25;;;3.05;;
25391;SDS011;13329;48.402;11.718;2022-09-03T08:56:08;3.45;;;2.63;;
25391;SDS011;13329;48.402;11.718;2022-09-03T08:58:35;5.13;;;2.33;;
25391;SDS011;13329;48.402;11.718;2022-09-03T09:01:08;3.25;;;2.40;;
25391;SDS011;13329;48.402;11.718;2022-09-03T09:03:47;6.53;;;2.63;;
25391;SDS011;13329;48.402;11.718;2022-09-03T09:09:02;4.57;;;2.67;;
25391;SDS011;13329;48.402;11.718;2022-09-03T09:14:15;3.58;;;2.10;;
25391;SDS011;13329;48.402;11.718;2022-09-03T09:21:50;3.80;;;2.70;;
25391;SDS011;13329;48.402;11.718;2022-09-03T09:24:27;4.38;;;2.40;;
25391;SDS011;13329;48.402;11.718;2022-09-03T09:26:57;5.90;;;2.90;;
25391;SDS011;13329;48.402;11.718;2022-09-03T09:29:24;3.33;;;2.10;;
25391;SDS011;13329;48.402;11.718;2022-09-03T09:31:51;3.25;;;2.30;;
25391;SDS011;13329;48.402;11.718;2022-09-03T09:34:17;2.78;;;2.17;;
25391;SDS011;13329;48.402;11.718;2022-09-03T09:36:45;2.60;;;2.10;;
25391;SDS011;13329;48.402;11.718;2022-09-03T09:39:11;3.60;;;2.28;;
25391;SDS011;13329;48.402;11.718;2022-09-03T09:41:39;3.13;;;2.58;;
25391;SDS011;13329;48.402;11.718;2022-09-03T09:44:05;2.97;;;2.03;;
25391;SDS011;13329;48.402;11.718;2022-09-03T09:46:35;3.80;;;2.37;;
25391;SDS011;13329;48.402;11.718;2022-09-03T09:49:00;6.28;;;2.33;;
25391;SDS011;13329;48.402;11.718;2022-09-03T09:51:27;3.75;;;2.40;;
25391;SDS011;13329;48.402;11.718;2022-09-03T09:56:26;2.90;;;2.13;;
25391;SDS011;13329;48.402;11.718;2022-09-03T09:59:07;3.33;;;1.93;;
25391;SDS011;13329;48.402;11.718;2022-09-03T10:01:35;2.72;;;1.90;;
25391;SDS011;13329;48.402;11.718;2022-09-03T10:04:08;2.83;;;2.03;;
25391;SDS011;13329;48.402;11.718;2022-09-03T10:06:34;4.43;;;2.43;;
25391;SDS011;13329;48.402;11.718;2022-09-03T10:09:18;2.63;;;1.88;;
25391;SDS011;13329;48.402;11.718;2022-09-03T10:11:46;2.92;;;1.80;;
25391;SDS011;13329;48.402;11.718;2022-09-03T10:17:46;2.25;;;1.70;;
25391;SDS011;13329;48.402;11.718;2022-09-03T10:19:49;4.35;;;2.28;;
25391;SDS011;13329;48.402;11.718;2022-09-03T10:22:39;2.42;;;1.90;;
25391;SDS011;13329;48.402;11.718;2022-09-03T10:25:10;2.65;;;2.10;;
25391;SDS011;13329;48.402;11.718;2022-09-03T10:27:35;3.55;;;2.28;;
25391;SDS011;13329;48.402;11.718;2022-09-03T10:30:01;3.85;;;2.42;;
25391;SDS011;13329;48.402;11.718;2022-09-03T10:37:45;3.15;;;2.30;;
25391;SDS011;13329;48.402;11.718;2022-09-03T10:48:10;3.63;;;1.77;;
25391;SDS011;13329;48.402;11.718;2022-09-03T10:50:55;5.30;;;2.20;;
25391;SDS011;13329;48.402;11.718;2022-09-03T10:56:04;3.03;;;2.10;;
25391;SDS011;13329;48.402;11.718;2022-09-03T11:01:01;3.65;;;2.20;;
25391;SDS011;13329;48.402;11.718;2022-09-03T11:03:44;3.42;;;2.17;;
25391;SDS011;13329;48.402;11.718;2022-09-03T11:06:18;3.17;;;1.92;;
25391;SDS011;13329;48.402;11.718;2022-09-03T11:09:01;2.78;;;1.70;;
25391;SDS011;13329;48.402;11.718;2022-09-03T11:11:40;2.65;;;1.90;;
25391;SDS011;13329;48.402;11.718;2022-09-03T11:14:10;2.53;;;1.42;;
25391;SDS011;13329;48.402;11.718;2022-09-03T11:16:44;2.78;;;1.80;;
25391;SDS011;13329;48.402;11.718;2022-09-03T11:21:36;2.17;;;1.33;;
25391;SDS011;13329;48.402;11.718;2022-09-03T11:24:10;2.80;;;1.50;;
25391;SDS011;13329;48.402;11.718;2022-09-03T11:26:37;2.08;;;1.50;;
25391;SDS011;13329;48.402;11.718;2022-09-03T11:31:48;1.63;;;1.15;;
25391;SDS011;13329;48.402;11.718;2022-09-03T11:34:15;4.35;;;1.67;;
25391;SDS011;13329;48.402;11.718;2022-09-03T11:36:50;1.60;;;1.30;;
25391;SDS011;13329;48.402;11.718;2022-09-03T11:42:03;4.28;;;1.65;;
25391;SDS011;13329;48.402;11.718;2022-09-03T11:44:36;1.90;;;1.45;;
25391;SDS011;13329;48.402;11.718;2022-09-03T11:47:11;1.98;;;1.33;;
25391;SDS011;13329;48.402;11.718;2022-09-03T11:49:42;3.17;;;1.48;;
25391;SDS011;13329;48.402;11.718;2022-09-03T11:52:08;5.03;;;1.35;;
25391;SDS011;13329;48.402;11.718;2022-09-03T11:54:44;2.35;;;1.70;;
25391;SDS011;13329;48.402;11.718;2022-09-03T11:57:21;1.55;;;1.10;;
25391;SDS011;13329;48.402;11.718;2022-09-03T11:59:47;1.77;;;1.30;;
25391;SDS011;13329;48.402;11.718;2022-09-03T12:10:16;1.38;;;1.15;;
25391;SDS011;13329;48.402;11.718;2022-09-03T12:18:02;2.83;;;1.35;;
25391;SDS011;13329;48.402;11.718;2022-09-03T12:20:47;3.30;;;1.25;;
25391;SDS011;13329;48.402;11.718;2022-09-03T12:23:13;3.00;;;1.20;;
25391;SDS011;13329;48.402;11.718;2022-09-03T12:25:50;2.40;;;1.30;;
25391;SDS011;13329;48.402;11.718;2022-09-03T12:28:16;1.83;;;1.17;;
25391;SDS011;13329;48.402;11.718;2022-09-03T12:30:45;1.98;;;1.10;;
25391;SDS011;13329;48.402;11.718;2022-09-03T12:33:11;2.13;;;1.20;;
25391;SDS011;13329;48.402;11.718;2022-09-03T12:35:38;1.85;;;1.10;;
25391;SDS011;13329;48.402;11.718;2022-09-03T12:38:03;1.88;;;1.27;;
25391;SDS011;13329;48.402;11.718;2022-09-03T12:40:29;1.07;;;0.97;;
25391;SDS011;13329;48.402;11.718;2022-09-03T12:42:54;1.45;;;1.17;;
25391;SDS011;13329;48.402;11.718;2022-09-03T12:45:21;2.13;;;1.20;;
25391;SDS011;13329;48.402;11.718;2022-09-03T12:47:47;1.58;;;1.20;;
25391;SDS011;13329;48.402;11.718;2022-09-03T12:50:13;1.60;;;1.20;;
25391;SDS011;13329;48.402;11.718;2022-09-03T12:53:21;2.70;;;1.20;;
25391;SDS011;13329;48.402;11.718;2022-09-03T12:55:34;1.92;;;1.30;;
25391;SDS011;13329;48.402;11.718;2022-09-03T12:58:07;1.50;;;1.10;;
25391;SDS011;13329;48.402;11.718;2022-09-03T13:00:35;1.88;;;1.30;;
25391;SDS011;13329;48.402;11.718;2022-09-03T13:03:03;2.97;;;1.05;;
25391;SDS011;13329;48.402;11.718;2022-09-03T13:05:33;2.20;;;1.00;;
25391;SDS011;13329;48.402;11.718;2022-09-03T13:07:59;1.10;;;1.00;;
25391;SDS011;13329;48.402;11.718;2022-09-03T13:10:33;1.15;;;0.95;;
25391;SDS011;13329;48.402;11.718;2022-09-03T13:13:02;1.90;;;1.13;;
25391;SDS011;13329;48.402;11.718;2022-09-03T13:15:31;1.25;;;0.82;;
25391;SDS011;13329;48.402;11.718;2022-09-03T13:18:00;1.57;;;1.10;;
25391;SDS011;13329;48.402;11.718;2022-09-03T13:20:53;1.00;;;0.90;;
25391;SDS011;13329;48.402;11.718;2022-09-03T13:23:20;1.30;;;0.80;;
25391;SDS011;13329;48.402;11.718;2022-09-03T13:31:07;2.08;;;0.98;;
25391;SDS011;13329;48.402;11.718;2022-09-03T13:33:37;1.55;;;0.98;;
25391;SDS011;13329;48.402;11.718;2022-09-03T13:36:20;3.47;;;1.10;;
25391;SDS011;13329;48.402;11.718;2022-09-03T13:38:56;1.95;;;1.20;;
25391;SDS011;13329;48.402;11.718;2022-09-03T13:44:05;1.45;;;0.80;;
25391;SDS011;13329;48.402;11.718;2022-09-03T13:46:39;1.40;;;1.08;;
25391;SDS011;13329;48.402;11.718;2022-09-03T13:49:08;1.20;;;0.90;;
25391;SDS011;13329;48.402;11.718;2022-09-03T13:52:07;3.58;;;1.20;;
25391;SDS011;13329;48.402;11.718;2022-09-03T13:54:37;1.30;;;1.17;;
25391;SDS011;13329;48.402;11.718;2022-09-03T13:57:20;1.10;;;1.00;;
25391;SDS011;13329;48.402;11.718;2022-09-03T13:59:51;1.58;;;1.20;;
25391;SDS011;13329;48.402;11.718;2022-09-03T14:02:32;1.90;;;1.30;;
25391;SDS011;13329;48.402;11.718;2022-09-03T14:05:02;2.15;;;1.30;;
25391;SDS011;13329;48.402;11.718;2022-09-03T14:10:04;1.92;;;1.00;;
25391;SDS011;13329;48.402;11.718;2022-09-03T14:17:39;1.75;;;1.10;;
25391;SDS011;13329;48.402;11.718;2022-09-03T14:25:21;2.47;;;1.15;;
25391;SDS011;13329;48.402;11.718;2022-09-03T14:27:47;1.92;;;1.17;;
25391;SDS011;13329;48.402;11.718;2022-09-03T14:32:51;2.30;;;0.98;;
25391;SDS011;13329;48.402;11.718;2022-09-03T14:35:27;1.85;;;1.05;;
25391;SDS011;13329;48.402;11.718;2022-09-03T14:38:08;2.25;;;1.38;;
25391;SDS011;13329;48.402;11.718;2022-09-03T14:40:45;1.95;;;1.45;;
25391;SDS011;13329;48.402;11.718;2022-09-03T14:43:27;1.48;;;1.17;;
25391;SDS011;13329;48.402;11.718;2022-09-03T14:55:55;3.95;;;1.45;;
25391;SDS011;13329;48.402;11.718;2022-09-03T14:58:41;1.83;;;1.35;;
25391;SDS011;13329;48.402;11.718;2022-09-03T15:01:18;1.25;;;1.15;;
25391;SDS011;13329;48.402;11.718;2022-09-03T15:11:49;2.00;;;1.20;;
25391;SDS011;13329;48.402;11.718;2022-09-03T15:14:29;1.73;;;1.00;;
25391;SDS011;13329;48.402;11.718;2022-09-03T15:24:42;1.50;;;1.10;;
25391;SDS011;13329;48.402;11.718;2022-09-03T15:27:17;2.28;;;1.17;;
25391;SDS011;13329;48.402;11.718;2022-09-03T15:29:50;1.38;;;0.90;;
25391;SDS011;13329;48.402;11.718;2022-09-03T15:39:58;2.00;;;0.88;;
25391;SDS011;13329;48.402;11.718;2022-09-03T15:42:25;3.30;;;1.00;;
25391;SDS011;13329;48.402;11.718;2022-09-03T15:44:55;2.80;;;1.13;;
25391;SDS011;13329;48.402;11.718;2022-09-03T15:47:31;2.35;;;1.10;;
25391;SDS011;13329;48.402;11.718;2022-09-03T15:49:58;1.87;;;1.10;;
25391;SDS011;13329;48.402;11.718;2022-09-03T15:52:35;1.50;;;1.08;;
25391;SDS011;13329;48.402;11.718;2022-09-03T15:55:12;2.03;;;1.00;;
25391;SDS011;13329;48.402;11.718;2022-09-03T15:57:45;1.27;;;1.00;;
25391;SDS011;13329;48.402;11.718;2022-09-03T16:00:15;2.17;;;1.20;;
25391;SDS011;13329;48.402;11.718;2022-09-03T16:02:45;4.65;;;1.30;;
25391;SDS011;13329;48.402;11.718;2022-09-03T16:05:34;2.95;;;1.15;;
25391;SDS011;13329;48.402;11.718;2022-09-03T16:10:34;3.13;;;1.30;;
25391;SDS011;13329;48.402;11.718;2022-09-03T16:15:58;4.10;;;1.35;;
25391;SDS011;13329;48.402;11.718;2022-09-03T16:21:13;2.25;;;1.52;;
25391;SDS011;13329;48.402;11.718;2022-09-03T16:26:33;2.30;;;1.40;;
25391;SDS011;13329;48.402;11.718;2022-09-03T16:29:05;4.95;;;1.50;;
25391;SDS011;13329;48.402;11.718;2022-09-03T16:37:48;3.10;;;1.40;;
25391;SDS011;13329;48.402;11.718;2022-09-03T16:39:59;2.33;;;1.27;;
25391;SDS011;13329;48.402;11.718;2022-09-03T16:45:16;2.95;;;1.40;;
25391;SDS011;13329;48.402;11.718;2022-09-03T16:55:28;3.08;;;1.63;;
25391;SDS011;13329;48.402;11.718;2022-09-03T16:58:11;2.25;;;1.30;;
25391;SDS011;13329;48.402;11.718;2022-09-03T17:00:42;2.00;;;1.10;;
25391;SDS011;13329;48.402;11.718;2022-09-03T17:08:07;3.67;;;1.13;;
25391;SDS011;13329;48.402;11.718;2022-09-03T17:10:42;2.13;;;1.17;;
25391;SDS011;13329;48.402;11.718;2022-09-03T17:13:13;2.42;;;0.90;;
25391;SDS011;13329;48.402;11.718;2022-09-03T17:28:56;1.90;;;0.90;;
25391;SDS011;13329;48.402;11.718;2022-09-03T17:31:35;6.05;;;0.93;;
25391;SDS011;13329;48.402;11.718;2022-09-03T17:36:35;1.23;;;1.00;;
25391;SDS011;13329;48.402;11.718;2022-09-03T17:41:51;1.52;;;0.80;;
25391;SDS011;13329;48.402;11.718;2022-09-03T17:46:45;2.03;;;1.08;;
25391;SDS011;13329;48.402;11.718;2022-09-03T17:49:31;2.13;;;1.10;;
25391;SDS011;13329;48.402;11.718;2022-09-03T17:52:02;2.17;;;1.00;;
25391;SDS011;13329;48.402;11.718;2022-09-03T17:59:41;1.45;;;0.95;;
25391;SDS011;13329;48.402;11.718;2022-09-03T18:02:15;2.90;;;1.20;;
25391;SDS011;13329;48.402;11.718;2022-09-03T18:04:53;2.17;;;0.95;;
25391;SDS011;13329;48.402;11.718;2022-09-03T18:18:40;3.45;;;1.40;;
25391;SDS011;13329;48.402;11.718;2022-09-03T18:21:09;2.35;;;1.15;;
25391;SDS011;13329;48.402;11.718;2022-09-03T18:26:49;2.13;;;1.33;;
25391;SDS011;13329;48.402;11.718;2022-09-03T18:29:36;3.25;;;1.30;;
25391;SDS011;13329;48.402;11.718;2022-09-03T18:32:22;2.33;;;1.38;;